Desert Springs, Nevada Weather observations

Data are for 10 minute period ending at time listed.
 Day   Time    Ave.   Ave.  Ave.  Vector   Max.   Total    Solar   
  of    of     Air    Rel.  Wind   Wind    Wind  Precip.   Rad.    
Year   Day     Temp.  Hum.  Speed  Dir.    Gust                    
2015   (PST)    F      %     mph   deg.    mph     in.     W/m2    
------------------------------------------------------------------- 
 244   10:00   74.0    16    5.0   300     10.0    5.65     659  
 244   11:00   78.0    15    5.0   274     10.0    5.65     801  
 244   12:00   81.0    13    5.0   155     12.0    5.65     876  
 244   13:00   82.0    12    8.0    74     15.0    5.65     903  
 244   14:00   85.0    10    7.0     1     13.0    5.65     849  
 244   15:00   86.0    11    3.0   301     19.0    5.65     733  
 244   16:00   85.0    12   15.0   309     25.0    5.65     599  
 244   17:00   83.0    10   20.0   277     28.0    5.65     411  
 244   18:00   79.0    12   20.0   272     30.0    5.65     152  
 244   19:00   74.0    14   23.0   273     31.0    5.65      51  
 244   20:00   70.0    20   19.0   284     28.0    5.65       0  
 244   21:00   68.0    25   18.0   298     24.0    5.65       0  
 244   22:00   66.0    30   20.0   297     29.0    5.65       0  
 244   23:00   65.0    33   17.0   303     27.0    5.65       0  
 245    0:00   64.0    33   15.0   300     26.0    5.65       0  
 245    1:00   65.0    22    7.0   262     23.0    5.65       0  
 245    2:00   64.0    22    4.0   192     11.0    5.65       0  
 245    3:00   64.0    21    4.0   204     10.0    5.65       0  
 245    4:00   62.0    32    9.0   320     14.0    5.65       0  
 245    5:00   61.0    28    6.0   281     12.0    5.65       0  
 245    6:00   63.0    24   11.0   232     16.0    5.65       2  
 245    7:00   65.0    24    1.0    15     18.0    5.65     106  
 245    8:00   69.0    24    5.0   258     12.0    5.65     320  
 245    9:00   72.0    21    7.0   211     14.0    5.65     515  

Return to Desert Springs, Nevada graphs page.


Western Regional Climate Center,wrcc@dri.edu